Data for 08/28/2009

Time Sea-Level Adjusted Pressure Absolute Pressure Temperature Relative Humidity Dew Point   
(mb) (inHg) (mb) (inHg) (C) (F) (%) (C) (F)
00:05 1029 30.39 858 25.34 19.6 67.2 23 -1.8 28.8
00:10 1029 30.39 858 25.34 19.5 67 24 -1.7 29
00:15 1029 30.39 858 25.34 19.3 66.8 24 -1.6 29.1
00:20 1029 30.39 858 25.34 19.3 66.7 24 -1.7 28.9
00:25 1029 30.39 858 25.34 19.2 66.6 24 -1.4 29.4
00:30 1029 30.39 858 25.34 18.9 66.1 25 -1.5 29.2
00:35 1029 30.39 858 25.34 18.9 65.9 25 -1.7 29
00:40 1029 30.39 858 25.34 18.9 66 25 -1.7 29
00:45 1029 30.39 858 25.34 18.9 66 25 -1.6 29.1
00:50 1029 30.39 858 25.34 18.8 65.9 25 -1.6 29.1
00:55 1029 30.39 858 25.34 18.7 65.7 25 -1.5 29.2
01:00 1029 30.39 858 25.34 18.6 65.5 25 -1.4 29.4
01:05 1029 30.39 858 25.34 18.6 65.4 25 -1.5 29.3
01:10 1029 30.39 858 25.34 18.6 65.4 25 -1.6 29.2
01:15 1029 30.39 858 25.34 18.7 65.6 25 -1.6 29.2
01:20 1029 30.39 858 25.34 18.7 65.7 25 -1.7 28.9
01:25 1029 30.39 858 25.34 18.9 65.9 25 -1.6 29
01:30 1029 30.39 858 25.34 18.8 65.9 25 -1.4 29.4
01:35 1029 30.39 858 25.34 18.7 65.7 25 -1.7 29
01:40 1029 30.39 858 25.34 18.8 65.8 25 -1.5 29.4
01:45 1029 30.39 858 25.34 18.7 65.6 25 -1.4 29.5
01:50 1029 30.39 858 25.34 18.5 65.4 26 -1.4 29.4
01:55 1029 30.39 858 25.34 18.4 65.2 26 -1.3 29.6
02:00 1029 30.39 858 25.34 18.4 65 26 -1.5 29.4
02:05 1029 30.39 858 25.34 18.4 65.1 26 -1.3 29.6
02:10 1029 30.39 858 25.34 18.4 65 26 -1.4 29.5
02:15 1029 30.39 858 25.34 18.3 65 26 -1.6 29.2
02:20 1029 30.39 858 25.34 18.5 65.2 26 -1.4 29.4
02:25 1029 30.39 858 25.34 18.5 65.2 25 -1.6 29
02:30 1029 30.39 858 25.34 18.4 65.2 26 -1.4 29.6
02:35 1029 30.39 858 25.34 18.3 64.9 26 -1.2 29.8
02:40 1029 30.39 858 25.34 18.2 64.7 26 -1.5 29.4
02:45 1029 30.39 858 25.34 18.1 64.5 26 -1.3 29.6
02:50 1029 30.39 858 25.34 18 64.3 27 -1.4 29.5
02:55 1029 30.39 858 25.34 17.9 64.3 27 -1.2 29.8
03:00 1029 30.39 858 25.34 17.6 63.6 28 -1 30.2
03:05 1029 30.39 858 25.34 17.3 63.1 28 -1.1 30
03:10 1029 30.39 858 25.34 17.2 63 29 -1.1 30
03:15 1029 30.39 858 25.34 17.2 62.9 29 -1.1 30.1
03:20 1029 30.39 858 25.34 17 62.5 29 -1 30.3
03:25 1029 30.39 858 25.34 16.6 61.9 30 -0.7 30.7
03:30 1029 30.39 858 25.34 16.1 60.9 32 -0.5 31
03:35 1029 30.39 858 25.34 15.6 60.2 32 -0.7 30.8
03:40 1029 30.39 858 25.34 15.5 59.9 33 -0.7 30.7
03:45 1029 30.39 858 25.34 15.6 60.1 32 -0.9 30.4
03:50 1029 30.39 858 25.34 15.6 60.1 33 -0.6 31
03:55 1029 30.39 858 25.34 15.5 59.9 33 -0.7 30.7
04:00 1029 30.39 858 25.34 15.4 59.6 34 -0.4 31.3
04:05 1029 30.39 858 25.34 14.9 58.8 36 -0.1 31.8
04:10 1029 30.39 858 25.34 14.5 58.2 36 -0.3 31.5
04:15 1029 30.39 858 25.34 14.4 57.9 36 -0.3 31.5
04:20 1029 30.39 858 25.34 14.3 57.7 37 -0.2 31.7
04:25 1029 30.39 858 25.34 14.2 57.5 37 -0.3 31.5
04:30 1029 30.39 858 25.34 14 57.3 38 -0.1 31.8
04:35 1029 30.39 858 25.34 13.9 56.9 38 -0.1 31.9
04:40 1029 30.39 858 25.34 13.6 56.5 41 0.5 32.9
04:45 1029 30.39 858 25.34 13.4 56 42 0.7 33.2
04:50 1029 30.39 858 25.34 13.2 55.7 42 0.5 33
04:55 1029 30.39 858 25.34 13.1 55.6 42 0.6 33.1
05:00 1029 30.39 858 25.34 13 55.5 41 0.2 32.4
05:05 1029 30.39 858 25.34 13.1 55.7 42 0.7 33.2
05:10 1029 30.39 858 25.34 12.9 55.2 42 0.2 32.4
05:15 1029 30.39 858 25.34 13.1 55.6 40 -0 32
05:20 1029 30.39 858 25.34 12.9 55.3 43 0.8 33.5
05:25 1029 30.39 858 25.34 12.7 54.9 42 0.1 32.2
05:30 1029 30.39 858 25.34 12.8 55 43 0.7 33.3
05:35 1029 30.39 858 25.34 12.5 54.4 42 0 32.1
05:40 1029 30.39 858 25.34 12.7 54.9 43 0.6 33.2
05:45 1029 30.39 858 25.34 12.7 54.8 43 0.5 33
05:50 1029 30.39 858 25.34 13 55.3 40 -0.1 31.8
05:55 1029 30.39 858 25.34 12.9 55.2 44 1.2 34.1
06:00 1029 30.39 858 25.34 12.6 54.8 43 0.5 32.9
06:05 1029 30.39 858 25.34 12.8 55 41 -0.2 31.7
06:10 1029 30.39 858 25.34 13.1 55.5 40 -0.1 31.8
06:15 1029 30.39 858 25.34 13.1 55.6 41 0 32.1
06:20 1029 30.39 858 25.34 13.1 55.5 40 -0.2 31.6
06:25 1029 30.39 858 25.34 13 55.4 42 0.4 32.6
06:30 1029 30.39 858 25.34 12.4 54.3 43 0.2 32.3
06:35 1029 30.39 858 25.34 12.6 54.6 45 1 33.9
06:40 1029 30.39 858 25.34 12.1 53.9 41 -0.6 30.9
06:45 1029 30.39 858 25.34 12.9 55.3 41 -0.1 31.9
06:50 1029 30.39 858 25.34 13 55.5 41 0 32
06:55 1029 30.39 858 25.34 12.8 55 43 0.4 32.8
07:00 1029 30.39 858 25.34 12.3 54.2 45 0.9 33.5
07:05 1029 30.39 858 25.34 11.7 53.1 47 0.8 33.4
07:10 1029 30.39 858 25.34 11.5 52.7 47 0.8 33.4
07:15 1029 30.39 858 25.34 11.7 53.1 45 0.3 32.5
07:20 1029 30.39 858 25.34 12 53.5 47 1.1 33.9
07:25 1029 30.39 858 25.34 11.9 53.4 45 0.4 32.8
07:30 1029 30.39 858 25.34 12.2 54 44 0.4 32.7
07:35 1029 30.39 858 25.34 12.7 54.8 42 0.2 32.4
07:40 1029 30.39 858 25.34 13.3 56 39 -0.2 31.7
07:45 1029 30.39 859 25.37 13.7 56.7 41 0.8 33.4
07:50 1029 30.39 859 25.37 13.6 56.5 42 1.1 34.1
07:55 1029 30.39 859 25.37 13.3 56 43 0.9 33.7
08:00 1029 30.39 859 25.37 13.4 56.1 43 1.3 34.3
08:05 1029 30.39 858 25.34 13.4 56 45 1.6 34.9
08:10 1029 30.39 858 25.34 13.4 56.1 45 1.6 35
08:15 1029 30.39 858 25.34 13.6 56.5 44 1.6 34.9
08:20 1029 30.39 858 25.34 14 57.2 43 1.7 35.1
08:25 1029 30.39 858 25.34 14.4 58 40 1.2 34.2
08:30 1029 30.39 858 25.34 15.1 59.1 40 1.5 34.8
08:35 1029 30.39 858 25.34 15.3 59.5 41 2.1 35.8
08:40 1029 30.39 858 25.34 15.7 60.2 39 2 35.6
08:45 1029 30.39 858 25.34 16.1 61.1 39 2.3 36.1
08:50 1029 30.39 858 25.34 16.5 61.7 39 2.6 36.7
08:55 1029 30.39 858 25.34 17 62.7 39 2.9 37.3
09:00 1029 30.39 858 25.34 17.2 63 37 2.6 36.7
09:05 1029 30.39 858 25.34 17.3 63.2 37 2.7 36.9
09:10 1029 30.39 858 25.34 18.1 64.5 34 2 35.6
09:15 1029 30.39 858 25.34 18.6 65.5 33 2.2 35.9
09:20 1029 30.39 858 25.34 19.2 66.5 31 1.9 35.5
09:25 1029 30.39 858 25.34 19.3 66.8 31 1.7 35.1
09:30 1029 30.39 858 25.34 19.2 66.5 34 3 37.5
09:35 1029 30.39 858 25.34 18.7 65.6 35 3 37.4
09:40 1029 30.39 858 25.34 18.8 65.8 31 1.4 34.5
09:45 1029 30.39 858 25.34 18.8 65.9 32 1.8 35.2
09:50 1029 30.39 858 25.34 18.1 64.5 35 2.4 36.4
09:55 1029 30.39 858 25.34 18.2 64.7 34 2.3 36.1
10:00 1029 30.39 858 25.34 19 66.2 32 2.1 35.8
10:05 1029 30.39 858 25.34 20.2 68.4 29 2 35.6
10:10 1029 30.39 858 25.34 19.3 66.8 30 1.4 34.6
10:15 1029 30.39 858 25.34 18.9 66 29 0.7 33.3
10:20 1029 30.39 858 25.34 19.4 66.9 28 0.5 32.9
10:25 1029 30.39 858 25.34 20.8 69.4 26 0.8 33.5
10:30 1029 30.39 858 25.34 21.4 70.5 26 1.2 34.2
10:35 1029 30.39 858 25.34 21 69.9 27 1.7 35.1
10:40 1029 30.39 858 25.34 20.3 68.6 28 1.6 34.8
10:45 1029 30.39 858 25.34 21.1 70 26 0.8 33.5
10:50 1029 30.39 858 25.34 22.1 71.8 23 0.4 32.8
10:55 1029 30.39 858 25.34 22.2 71.9 24 0.9 33.6
11:00 1029 30.39 858 25.34 22.3 72.1 24 1.2 34.2
11:05 1029 30.39 858 25.34 21 69.8 26 0.8 33.4
11:10 1029 30.39 858 25.34 21.5 70.8 22 -0.8 30.6
11:15 1029 30.39 858 25.34 22.3 72.2 23 0.7 33.2
11:20 1029 30.39 858 25.34 21.9 71.5 24 0.9 33.6
11:25 1029 30.39 858 25.34 22.8 73 25 1.7 35.1
11:30 1029 30.39 858 25.34 23.5 74.3 23 1.4 34.5
11:35 1029 30.39 858 25.34 23.3 73.9 23 0.9 33.7
11:40 1029 30.39 858 25.34 22.6 72.6 24 1 33.7
11:45 1029 30.39 858 25.34 22.9 73.3 22 0.2 32.4
11:50 1028 30.36 858 25.34 23.9 74.9 22 1.1 34
11:55 1028 30.36 858 25.34 24.3 75.7 21 0.9 33.7
12:00 1028 30.36 858 25.34 24.6 76.2 22 1.7 35.1
12:05 1028 30.36 857 25.31 23.5 74.4 23 1.7 35.1
12:10 1028 30.36 857 25.31 23.4 74.1 23 1.4 34.5
12:15 1028 30.36 857 25.31 23.6 74.5 24 2.3 36.1
12:20 1028 30.36 857 25.31 24.2 75.5 22 1.2 34.1
12:25 1028 30.36 857 25.31 24.9 76.7 22 1.7 35.1
12:30 1028 30.36 857 25.31 24.7 76.4 22 1.6 35
12:35 1028 30.36 857 25.31 25.1 77.1 22 2.3 36.1
12:40 1028 30.36 857 25.31 25.6 78.1 22 2.3 36.1
12:45 1028 30.36 857 25.31 25.2 77.4 22 2.5 36.5
12:50 1028 30.36 857 25.31 25.5 77.8 22 2.4 36.3
12:55 1028 30.36 857 25.31 26 78.8 20 1.7 35
13:00 1028 30.36 857 25.31 25.3 77.6 21 2 35.5
13:05 1027 30.33 857 25.31 25.5 77.8 21 1.8 35.2
13:10 1027 30.33 857 25.31 24.6 76.3 22 1.9 35.4
13:15 1027 30.33 857 25.31 24.8 76.6 22 1.8 35.3
13:20 1027 30.33 857 25.31 25.1 77.2 21 1.8 35.3
13:25 1027 30.33 856 25.28 25.6 78.1 21 1.7 35.1
13:30 1027 30.33 856 25.28 26.6 79.9 20 1.9 35.4
13:35 1027 30.33 856 25.28 26.5 79.7 20 2.2 36
13:40 1027 30.33 856 25.28 25.8 78.5 21 2.1 35.8
13:45 1027 30.33 856 25.28 26.1 78.9 21 2.2 36
13:50 1027 30.33 856 25.28 27.2 81 19 1.8 35.3
13:55 1027 30.33 856 25.28 27.2 81 20 2.4 36.2
14:00 1027 30.33 856 25.28 26.5 79.7 20 2.1 35.8
14:05 1027 30.33 856 25.28 26.7 80.1 20 2.1 35.8
14:10 1027 30.33 856 25.28 27.3 81.1 20 2.8 37.1
14:15 1027 30.33 856 25.28 27.7 81.9 19 2.2 35.9
14:20 1027 30.33 856 25.28 27.5 81.6 20 2.6 36.6
14:25 1027 30.33 856 25.28 27.1 80.7 20 2.3 36.2
14:30 1027 30.33 856 25.28 27.2 80.9 19 2.2 35.9
14:35 1027 30.33 856 25.28 27.6 81.7 18 1.6 34.9
14:40 1027 30.33 856 25.28 28 82.3 18 2.1 35.8
14:45 1026 30.3 856 25.28 28.7 83.7 18 2.4 36.3
14:50 1026 30.3 856 25.28 28.1 82.6 18 2.1 35.8
14:55 1026 30.3 856 25.28 27.8 82.1 18 1.5 34.7
15:00 1026 30.3 856 25.28 27.7 81.9 18 1.6 34.9
15:05 1026 30.3 855 25.25 27.8 82 18 1.7 35.1
15:10 1026 30.3 855 25.25 27.6 81.6 20 2.7 36.9
15:15 1026 30.3 855 25.25 27.6 81.6 18 1.6 34.9
15:20 1026 30.3 855 25.25 27.6 81.7 18 1.4 34.5
15:25 1026 30.3 855 25.25 27.5 81.4 18 1.4 34.5
15:30 1026 30.3 855 25.25 27.8 82 18 1.3 34.3
15:35 1026 30.3 855 25.25 27.5 81.4 19 2 35.7
15:40 1026 30.3 855 25.25 27.7 81.8 18 1.7 35
15:45 1026 30.3 855 25.25 27.5 81.5 18 1.5 34.7
15:50 1026 30.3 855 25.25 27.4 81.4 18 1.1 34
15:55 1025 30.27 855 25.25 27.4 81.4 17 0.9 33.6
16:00 1025 30.27 855 25.25 27.4 81.3 17 0.4 32.7
16:05 1025 30.27 855 25.25 27.7 81.8 16 -0.1 31.8
16:10 1025 30.27 855 25.25 27.4 81.3 17 0.4 32.7
16:15 1025 30.27 854 25.22 27.4 81.4 17 0.6 33.1
16:20 1025 30.27 854 25.22 27.6 81.6 17 0.6 33.2
16:25 1025 30.27 854 25.22 27.4 81.3 18 0.9 33.6
16:30 1025 30.27 854 25.22 27.4 81.3 17 0.8 33.4
16:35 1025 30.27 854 25.22 27.5 81.4 16 -0.5 31.2
16:40 1025 30.27 854 25.22 27.5 81.5 17 0.8 33.4
16:45 1025 30.27 854 25.22 27.4 81.4 17 0.3 32.5
16:50 1025 30.27 854 25.22 27.2 80.9 17 -0 31.9
16:55 1025 30.27 854 25.22 27.1 80.7 17 -0.2 31.6
17:00 1025 30.27 854 25.22 27.1 80.7 16 -0.5 31.1
17:05 1025 30.27 854 25.22 27.1 80.8 16 -0.9 30.4
17:10 1025 30.27 854 25.22 27.1 80.7 17 -0 32
17:15 1025 30.27 854 25.22 27.1 80.8 16 -0.6 30.9
17:20 1025 30.27 854 25.22 27.2 80.9 17 0.2 32.3
17:25 1025 30.27 854 25.22 27.1 80.8 17 0.4 32.6
17:30 1025 30.27 854 25.22 27.1 80.8 15 -1.2 29.9
17:35 1025 30.27 854 25.22 26.8 80.3 16 -1.1 30
17:40 1025 30.27 854 25.22 26.9 80.3 16 -1.1 30.1
17:45 1025 30.27 854 25.22 26.8 80.3 16 -0.7 30.8
17:50 1025 30.27 854 25.22 26.8 80.2 15 -1.4 29.4
17:55 1025 30.27 854 25.22 26.7 80 16 -0.8 30.6
18:00 1025 30.27 854 25.22 26.7 80 16 -1.2 29.9
18:05 1025 30.27 854 25.22 26.6 79.9 16 -0.8 30.5
18:10 1025 30.27 854 25.22 26.6 79.8 16 -1 30.2
18:15 1025 30.27 854 25.22 26.5 79.7 17 -0.5 31.1
18:20 1025 30.27 854 25.22 26.4 79.6 17 -0.6 30.9
18:25 1025 30.27 854 25.22 26.4 79.4 16 -0.8 30.5
18:30 1024 30.24 854 25.22 26.1 79 17 -0.9 30.4
18:35 1024 30.24 854 25.22 26 78.9 16 -1.8 28.8
18:40 1024 30.24 854 25.22 26 78.7 16 -1.2 29.8
18:45 1024 30.24 854 25.22 25.8 78.4 18 -0.3 31.5
18:50 1024 30.24 853 25.19 25.6 78.1 17 -1.1 29.9
18:55 1024 30.24 853 25.19 25.5 78 17 -1.3 29.6
19:00 1024 30.24 853 25.19 25.4 77.8 18 -0.7 30.7
19:05 1024 30.24 853 25.19 25.3 77.5 18 -0.6 31
19:10 1024 30.24 853 25.19 25.1 77.2 18 -0.8 30.5
19:15 1024 30.24 853 25.19 25 76.9 18 -0.8 30.5
19:20 1024 30.24 853 25.19 24.9 76.7 18 -1.1 30.1
19:25 1024 30.24 853 25.19 24.7 76.5 18 -1 30.2
19:30 1024 30.24 853 25.19 24.6 76.3 18 -0.9 30.4
19:35 1024 30.24 853 25.19 24.5 76 19 -0.4 31.3
19:40 1024 30.24 853 25.19 24.3 75.7 19 -0.5 31.2
19:45 1024 30.24 853 25.19 24.1 75.3 20 -0 31.9
19:50 1024 30.24 853 25.19 23.9 75 20 -0 31.9
19:55 1024 30.24 853 25.19 23.7 74.6 21 0.1 32.2
20:00 1024 30.24 853 25.19 23.5 74.2 21 0.3 32.5
20:05 1024 30.24 853 25.19 23.2 73.8 22 0.4 32.8
20:10 1024 30.24 853 25.19 23 73.4 22 0.1 32.2
20:15 1024 30.24 853 25.19 22.9 73.2 22 0.5 32.8
20:20 1024 30.24 853 25.19 22.7 72.8 23 0.5 33
20:25 1024 30.24 853 25.19 22.5 72.5 23 0.2 32.4
20:30 1024 30.24 853 25.19 22.4 72.4 23 0.4 32.6
20:35 1024 30.24 853 25.19 22.4 72.3 22 0 32
20:40 1024 30.24 853 25.19 22.4 72.4 22 0.2 32.3
20:45 1024 30.24 853 25.19 22.3 72.1 23 0.3 32.6
20:50 1024 30.24 853 25.19 22.3 72.1 23 0 32.1
20:55 1024 30.24 853 25.19 22.4 72.2 23 0.3 32.6
21:00 1024 30.24 853 25.19 22.3 72.2 23 0.4 32.7
21:05 1024 30.24 853 25.19 22.3 72.1 23 0.5 33
21:10 1024 30.24 854 25.22 22.3 72.1 24 0.9 33.6
21:15 1024 30.24 854 25.22 22.3 72.1 24 1.2 34.2
21:20 1024 30.24 854 25.22 22.2 71.9 25 1.6 34.9
21:25 1024 30.24 854 25.22 22 71.7 26 1.8 35.2
21:30 1024 30.24 854 25.22 22 71.5 27 2.1 35.7
21:35 1024 30.24 854 25.22 21.8 71.3 27 2.5 36.4
21:40 1024 30.24 854 25.22 21.7 71 28 2.6 36.7
21:45 1024 30.24 854 25.22 21.5 70.8 28 2.6 36.7
21:50 1024 30.24 854 25.22 21.5 70.7 29 2.8 37
21:55 1025 30.27 854 25.22 21.4 70.4 29 2.8 37
22:00 1024 30.24 854 25.22 21.3 70.3 29 2.9 37.2
22:05 1024 30.24 854 25.22 21.2 70.1 30 2.9 37.2
22:10 1024 30.24 854 25.22 21.2 70.1 29 2.8 37
22:15 1025 30.27 854 25.22 21.2 70.1 29 2.8 37
22:20 1025 30.27 854 25.22 21 69.8 30 2.8 37.1
22:25 1024 30.24 854 25.22 20.9 69.7 30 2.9 37.2
22:30 1024 30.24 854 25.22 20.9 69.5 30 2.9 37.3
22:35 1024 30.24 854 25.22 20.8 69.4 30 2.9 37.3
22:40 1024 30.24 854 25.22 20.7 69.3 31 3.1 37.5
22:45 1024 30.24 854 25.22 20.6 69 31 2.9 37.3
22:50 1024 30.24 854 25.22 20.5 69 31 3 37.4
22:55 1024 30.24 853 25.19 20.5 68.9 31 3 37.4
23:00 1024 30.24 853 25.19 20.5 68.9 31 3 37.4
23:05 1024 30.24 853 25.19 20.4 68.7 32 3.1 37.6
23:10 1024 30.24 853 25.19 20.2 68.4 32 3.1 37.6
23:15 1024 30.24 853 25.19 20.1 68.2 32 3 37.4
23:20 1024 30.24 853 25.19 20 67.9 32 3.1 37.6
23:25 1024 30.24 853 25.19 19.9 67.8 33 3.1 37.6
23:30 1024 30.24 853 25.19 19.8 67.7 32 3 37.5
23:35 1024 30.24 853 25.19 19.7 67.5 33 3 37.5
23:40 1024 30.24 853 25.19 19.6 67.3 33 3.1 37.5
23:45 1024 30.24 853 25.19 19.5 67.1 33 3 37.4
23:50 1024 30.24 853 25.19 19.4 66.9 33 3 37.5
23:55 1024 30.24 853 25.19 19.4 66.8 33 2.8 37.1
24:00 1024 30.24 853 25.19 19.4 66.8 33 2.9 37.3